Time;durP1;ratioP1;P1;durP2;ratioP2;P2;SDS_P1;SDS_P2;PMS_P1;PMS_P2;Temp;Humidity;BMP_temperature;BMP_pressure;BME280_temperature;BME280_humidity;BME280_pressure;Samples;Min_cycle;Max_cycle;Signal;HPM_P1;HPM_P2
2021/09/10 00:00:02;;;;;;;43.38;33.78;;;;;;;14.45;74.96;100802.50;1682462;84;21605;-52
2021/09/10 00:02:29;;;;;;;41.40;35.43;;;;;;;14.40;75.02;100805.81;1687276;83;21056;-51
2021/09/10 00:04:55;;;;;;;41.80;32.60;;;;;;;14.36;75.15;100807.24;1675511;83;21593;-51
2021/09/10 00:07:21;;;;;;;36.65;31.07;;;;;;;14.38;75.16;100802.50;1678642;85;21554;-51
2021/09/10 00:09:48;;;;;;;37.42;31.55;;;;;;;14.44;74.82;100803.55;1686367;83;21024;-50
2021/09/10 00:12:15;;;;;;;46.42;33.78;;;;;;;14.43;74.71;100805.91;1684028;84;21038;-50
2021/09/10 00:14:41;;;;;;;43.75;35.03;;;;;;;14.38;74.79;100804.66;1689566;84;21102;-50
2021/09/10 00:17:08;;;;;;;39.08;34.33;;;;;;;14.31;74.94;100804.33;1688315;83;21062;-51
2021/09/10 00:19:34;;;;;;;41.50;35.30;;;;;;;14.23;75.12;100801.32;1696252;83;21544;-50
2021/09/10 00:22:00;;;;;;;;;;;;;;;14.18;75.25;100803.28;1694978;83;21706;-50
2021/09/10 00:24:27;;;;;;;43.20;33.35;;;;;;;14.18;75.25;100805.11;1685056;85;20142;-50
2021/09/10 00:26:53;;;;;;;43.10;33.58;;;;;;;14.15;75.26;100800.98;1691053;83;21554;-50
2021/09/10 00:29:19;;;;;;;45.15;35.03;;;;;;;14.18;75.30;100799.25;1685871;84;21642;-50
2021/09/10 00:31:47;;;;;;;41.18;35.23;;;;;;;14.17;75.28;100798.92;1681613;83;21091;-50
2021/09/10 00:34:14;;;;;;;44.80;34.55;;;;;;;14.13;75.50;100805.72;1686921;83;21217;-50
2021/09/10 00:36:46;;;;;;;47.33;34.43;;;;;;;14.09;75.65;100798.27;1687829;83;21161;-51
2021/09/10 00:39:14;;;;;;;41.23;33.50;;;;;;;14.09;75.61;100804.47;1690742;83;21641;-50
2021/09/10 00:41:41;;;;;;;38.48;32.60;;;;;;;14.13;75.44;100800.36;1686054;83;21605;-53
2021/09/10 00:44:08;;;;;;;45.52;35.28;;;;;;;14.15;75.34;100802.33;1686764;83;21577;-51
2021/09/10 00:46:35;;;;;;;42.25;34.33;;;;;;;14.12;75.31;100802.72;1686131;83;21030;-52
2021/09/10 00:49:04;;;;;;;44.03;34.70;;;;;;;14.05;75.52;100801.86;1678473;83;21122;-53
2021/09/10 00:51:31;;;;;;;48.87;34.58;;;;;;;13.97;75.71;100801.52;1683453;84;21040;-50
2021/09/10 00:53:57;;;;;;;39.08;32.08;;;;;;;13.91;75.79;100798.30;1690923;84;21071;-51
2021/09/10 00:56:26;;;;;;;35.90;29.65;;;;;;;13.92;75.77;100801.80;1678013;83;21442;-52
2021/09/10 00:58:56;;;;;;;38.73;30.35;;;;;;;13.96;75.75;100801.22;1690707;85;21083;-52
2021/09/10 01:01:23;;;;;;;43.05;32.30;;;;;;;13.98;75.72;100803.19;1677816;84;21059;-50
2021/09/10 01:03:51;;;;;;;36.00;32.17;;;;;;;13.97;75.74;100805.53;1672981;83;21114;-52
2021/09/10 01:06:19;;;;;;;45.00;32.98;;;;;;;13.91;75.89;100808.20;1685656;84;21739;-52
2021/09/10 01:08:49;;;;;;;41.55;33.73;;;;;;;13.84;75.93;100808.16;1686676;84;21044;-52
2021/09/10 01:11:18;;;;;;;45.55;31.65;;;;;;;13.78;76.06;100804.41;1689844;84;21028;-51
2021/09/10 01:13:47;;;;;;;40.38;30.72;;;;;;;13.75;76.00;100807.51;1687902;84;21128;-51
2021/09/10 01:16:13;;;;;;;40.23;30.40;;;;;;;13.76;75.90;100809.14;1683822;84;21604;-51
2021/09/10 01:18:41;;;;;;;40.20;30.82;;;;;;;13.74;75.93;100808.52;1675584;83;21063;-51
2021/09/10 01:21:08;;;;;;;39.27;31.17;;;;;;;13.70;76.04;100806.45;1688494;84;21609;-51
2021/09/10 01:23:34;;;;;;;40.43;32.53;;;;;;;13.63;76.22;100807.73;1687470;83;21056;-51
2021/09/10 01:26:00;;;;;;;;;;;;;;;13.55;76.40;100807.90;1685337;83;21159;-51
2021/09/10 01:28:27;;;;;;;40.88;30.35;;;;;;;13.53;76.48;100808.61;1688349;84;20166;-51
2021/09/10 01:30:53;;;;;;;33.42;28.95;;;;;;;13.51;76.54;100809.32;1687170;84;21026;-50
2021/09/10 01:33:20;;;;;;;44.13;31.65;;;;;;;13.54;76.61;100808.91;1689527;83;21075;-50
2021/09/10 01:35:46;;;;;;;47.00;31.73;;;;;;;13.56;76.57;100811.73;1686543;85;21494;-50
2021/09/10 01:38:12;;;;;;;40.85;31.42;;;;;;;13.52;76.66;100807.76;1681941;83;21174;-49
2021/09/10 01:40:39;;;;;;;38.02;30.70;;;;;;;13.50;76.81;100817.02;1691745;83;20988;-51
2021/09/10 01:43:07;;;;;;;36.38;29.15;;;;;;;13.52;76.77;100816.31;1683526;84;21107;-50
2021/09/10 01:45:33;;;;;;;32.08;27.55;;;;;;;13.57;76.67;100820.58;1691025;83;21004;-50
2021/09/10 01:48:01;;;;;;;37.50;29.45;;;;;;;13.62;76.73;100810.93;1681588;85;21058;-50
2021/09/10 01:50:27;;;;;;;36.05;27.95;;;;;;;13.66;76.60;100811.37;1668824;83;21632;-50
2021/09/10 01:52:54;;;;;;;40.15;29.07;;;;;;;13.61;76.56;100806.58;1690146;84;21569;-50
2021/09/10 01:55:21;;;;;;;36.58;29.35;;;;;;;13.57;76.70;100807.19;1679727;83;21050;-50
2021/09/10 01:57:50;;;;;;;36.77;28.17;;;;;;;13.50;76.68;100803.63;1674384;83;21582;-49
2021/09/10 02:00:19;;;;;;;41.23;27.42;;;;;;;13.48;76.61;100805.69;1687867;85;21021;-51
2021/09/10 02:02:46;;;;;;;39.78;26.23;;;;;;;13.50;76.56;100805.80;1685655;85;21168;-49
2021/09/10 02:05:13;;;;;;;33.67;27.40;;;;;;;13.52;76.69;100808.28;1690971;83;21068;-50
2021/09/10 02:07:40;;;;;;;31.33;26.62;;;;;;;13.52;76.80;100801.58;1691035;83;21042;-50
2021/09/10 02:11:48;;;;;;;37.38;28.83;;;;;;;13.52;76.92;100798.39;1757306;79;22805;-50
2021/09/10 02:14:15;;;;;;;36.68;26.90;;;;;;;13.40;76.95;100802.13;1686603;84;21045;-50
2021/09/10 02:16:42;;;;;;;38.25;24.80;;;;;;;13.40;76.92;100806.14;1673082;84;21169;-51
2021/09/10 02:19:09;;;;;;;31.35;23.77;;;;;;;13.43;76.84;100800.41;1670338;84;21033;-50
2021/09/10 02:21:37;;;;;;;35.10;25.40;;;;;;;13.44;76.78;100800.70;1670540;84;21025;-50
2021/09/10 02:24:04;;;;;;;29.37;23.67;;;;;;;13.44;76.94;100810.60;1667236;82;21103;-49
2021/09/10 02:26:32;;;;;;;35.00;25.23;;;;;;;13.38;77.05;100808.19;1692377;84;21070;-49
2021/09/10 02:28:58;;;;;;;34.67;24.90;;;;;;;13.35;77.13;100807.75;1703237;83;21168;-50
2021/09/10 02:31:24;;;;;;;31.05;22.93;;;;;;;13.34;77.07;100806.94;1700814;83;21349;-50
2021/09/10 02:33:51;;;;;;;;;;;;;;;13.36;76.88;100803.55;1702794;83;21570;-50
2021/09/10 02:36:17;;;;;;;39.48;25.80;;;;;;;13.36;76.71;100808.90;1670368;84;20133;-50
2021/09/10 02:38:43;;;;;;;33.78;25.45;;;;;;;13.31;76.75;100810.51;1673661;84;21089;-50
2021/09/10 02:41:09;;;;;;;32.30;24.63;;;;;;;13.26;76.95;100808.39;1676217;84;21105;-50
2021/09/10 02:43:37;;;;;;;34.95;26.50;;;;;;;13.22;77.07;100813.30;1670978;84;21635;-51
2021/09/10 02:46:03;;;;;;;;;;;;;;;13.18;77.08;100812.53;1671804;84;21035;-50
2021/09/10 02:48:30;;;;;;;33.78;24.18;;;;;;;13.15;77.05;100807.07;1669157;84;20176;-51
2021/09/10 02:50:57;;;;;;;30.40;24.05;;;;;;;13.14;77.08;100804.58;1661868;84;21088;-50
2021/09/10 02:53:24;;;;;;;33.98;24.52;;;;;;;13.16;76.99;100802.53;1663935;84;21111;-49
2021/09/10 02:55:52;;;;;;;30.32;24.77;;;;;;;13.13;77.04;100800.23;1683209;83;21575;-51
2021/09/10 02:58:19;;;;;;;38.15;26.10;;;;;;;13.07;77.24;100798.34;1731726;81;21064;-50
2021/09/10 03:00:46;;;;;;;32.78;24.05;;;;;;;13.03;77.48;100804.09;1717268;81;21630;-49
2021/09/10 03:03:15;;;;;;;29.37;22.60;;;;;;;13.01;77.66;100800.76;1683724;84;21198;-49
2021/09/10 03:05:41;;;;;;;40.25;23.80;;;;;;;13.08;77.56;100798.16;1684794;84;21076;-50
2021/09/10 03:08:08;;;;;;;29.77;24.52;;;;;;;13.09;77.50;100797.63;1686850;83;21136;-50
2021/09/10 03:10:35;;;;;;;30.65;25.50;;;;;;;13.05;77.59;100798.04;1683156;84;21076;-49
2021/09/10 03:13:03;;;;;;;38.20;26.23;;;;;;;12.99;77.63;100797.45;1677968;84;21048;-49
2021/09/10 03:15:29;;;;;;;32.88;25.43;;;;;;;12.94;77.66;100801.72;1678702;84;22410;-54
2021/09/10 03:17:57;;;;;;;32.17;23.65;;;;;;;12.91;77.65;100799.45;1678708;84;21052;-51
2021/09/10 03:20:23;;;;;;;34.67;25.75;;;;;;;12.93;77.54;100800.91;1681666;84;21501;-50
2021/09/10 03:22:51;;;;;;;32.53;23.83;;;;;;;12.95;77.74;100797.52;1689879;82;21122;-52
2021/09/10 03:25:17;;;;;;;27.45;24.45;;;;;;;13.01;77.76;100800.76;1723490;82;21157;-51
2021/09/10 03:27:43;;;;;;;28.42;23.85;;;;;;;13.02;77.55;100799.75;1712317;82;21078;-51
2021/09/10 03:30:12;;;;;;;33.73;25.35;;;;;;;12.98;77.56;100795.81;1725366;82;21058;-50
2021/09/10 03:32:41;;;;;;;34.03;24.82;;;;;;;12.95;77.69;100802.87;1722772;82;21021;-50
2021/09/10 03:35:09;;;;;;;36.17;25.10;;;;;;;12.95;77.68;100800.20;1714649;82;21041;-60
2021/09/10 03:37:35;;;;;;;32.60;24.55;;;;;;;13.00;77.62;100792.43;1713463;82;21061;-62
2021/09/10 03:40:03;;;;;;;31.42;23.15;;;;;;;13.05;77.55;100798.04;1701764;82;21540;-57
2021/09/10 03:42:29;;;;;;;36.58;24.60;;;;;;;13.08;77.57;100798.16;1678220;84;21082;-57
2021/09/10 03:44:56;;;;;;;32.50;25.08;;;;;;;13.08;77.85;100797.33;1669491;84;21016;-59
2021/09/10 03:47:23;;;;;;;33.90;23.83;;;;;;;13.05;77.83;100800.72;1645779;85;21045;-57
2021/09/10 03:49:49;;;;;;;29.05;23.60;;;;;;;13.10;77.62;100804.66;1651652;85;21075;-57
2021/09/10 03:52:15;;;;;;;30.97;23.55;;;;;;;13.18;77.45;100805.84;1669010;85;21078;-58
2021/09/10 03:54:42;;;;;;;29.12;24.20;;;;;;;13.31;77.50;100809.17;1653796;84;21122;-57
2021/09/10 03:57:07;;;;;;;30.45;23.90;;;;;;;13.52;77.93;100813.64;1617826;85;21160;-58
2021/09/10 03:59:35;;;;;;;25.70;22.90;;;;;;;13.83;77.59;100806.52;1626888;87;21099;-58
2021/09/10 04:02:04;;;;;;;30.68;22.17;;;;;;;14.30;76.57;100809.40;1667734;84;21131;-58
2021/09/10 04:04:30;;;;;;;35.95;24.07;;;;;;;14.82;74.45;100805.19;1674941;84;21189;-59
2021/09/10 04:06:56;;;;;;;;;;;;;;;15.31;72.09;100806.66;1661971;85;21117;-59
2021/09/10 04:09:24;;;;;;;28.05;22.77;;;;;;;15.80;70.29;100803.16;1653964;84;20128;-58
2021/09/10 04:11:50;;;;;;;29.50;22.25;;;;;;;16.28;68.58;100800.61;1669870;84;21073;-58
2021/09/10 04:14:18;;;;;;;29.02;22.73;;;;;;;17.28;65.14;100797.24;1680334;85;21021;-58
2021/09/10 04:16:44;;;;;;;26.52;23.38;;;;;;;17.28;65.14;100797.24;1670304;84;21065;-58
2021/09/10 04:19:10;;;;;;;29.95;22.90;;;;;;;17.79;63.29;100793.92;1641998;85;21092;-61
2021/09/10 04:21:37;;;;;;;30.23;21.95;;;;;;;18.34;61.70;100795.75;1650492;85;21595;-59
2021/09/10 04:24:05;;;;;;;27.52;22.35;;;;;;;18.93;59.63;100794.08;1633383;84;21098;-58
2021/09/10 04:26:31;;;;;;;26.20;21.68;;;;;;;19.53;57.92;100796.26;1666210;85;21121;-58
2021/09/10 04:28:57;;;;;;;26.12;20.77;;;;;;;20.02;56.12;100796.27;1656143;85;21584;-63
2021/09/10 04:31:23;;;;;;;;;;;;;;;20.42;54.30;100799.47;1661731;85;21072;-60
2021/09/10 04:33:49;;;;;;;26.55;20.88;;;;;;;20.76;53.23;100796.84;1660646;85;20436;-60
2021/09/10 04:36:17;;;;;;;26.77;21.42;;;;;;;21.02;52.58;100801.34;1657378;85;21088;-60
2021/09/10 04:38:44;;;;;;;30.68;21.07;;;;;;;21.35;51.70;100797.77;1613696;87;21104;-60
2021/09/10 04:41:10;;;;;;;;;;;;;;;21.71;50.46;100792.05;1632216;86;21104;-60
2021/09/10 04:43:36;;;;;;;24.80;21.82;;;;;;;22.02;49.59;100788.34;1663920;85;20253;-59
2021/09/10 04:46:03;;;;;;;28.15;20.85;;;;;;;22.26;48.93;100787.56;1641281;85;21081;-60
2021/09/10 04:48:30;;;;;;;26.93;20.30;;;;;;;22.55;48.16;100794.94;1640729;86;21093;-58
2021/09/10 04:50:56;;;;;;;24.18;20.02;;;;;;;22.87;47.33;100790.05;1637221;86;21572;-59
2021/09/10 04:53:22;;;;;;;27.98;20.10;;;;;;;23.18;46.61;100787.59;1632749;86;21030;-62
2021/09/10 04:55:48;;;;;;;25.08;20.10;;;;;;;23.48;45.78;100787.77;1630625;85;21065;-60
2021/09/10 04:58:17;;;;;;;22.60;17.90;;;;;;;23.75;45.03;100786.00;1652085;85;21489;-59
2021/09/10 05:00:43;;;;;;;24.77;18.15;;;;;;;24.00;44.49;100784.78;1649171;85;21174;-60
2021/09/10 05:03:09;;;;;;;24.25;18.70;;;;;;;24.26;43.86;100782.95;1655009;85;21683;-59
2021/09/10 05:05:35;;;;;;;25.43;19.35;;;;;;;24.47;43.49;100778.34;1640780;85;21583;-59
2021/09/10 05:08:04;;;;;;;31.80;19.85;;;;;;;24.73;42.94;100783.83;1653663;85;21038;-62
2021/09/10 05:10:30;;;;;;;27.90;18.52;;;;;;;24.94;42.64;100781.95;1643528;85;21069;-62
2021/09/10 05:12:58;;;;;;;23.90;18.35;;;;;;;25.13;41.92;100782.72;1637516;85;21037;-59
2021/09/10 05:15:24;;;;;;;23.75;17.57;;;;;;;25.35;41.59;100794.17;1645128;85;21133;-62
2021/09/10 05:17:52;;;;;;;26.12;18.05;;;;;;;25.58;41.03;100782.37;1652221;85;21031;-61
2021/09/10 05:20:18;;;;;;;20.72;17.20;;;;;;;25.79;40.66;100785.87;1657639;85;21030;-62
2021/09/10 05:22:46;;;;;;;16.77;15.00;;;;;;;26.02;39.61;100783.05;1655578;83;21067;-63
2021/09/10 05:25:13;;;;;;;20.77;15.65;;;;;;;26.30;38.07;100784.27;1622120;87;21101;-61
2021/09/10 05:27:42;;;;;;;16.77;15.08;;;;;;;26.50;37.06;100787.39;1655003;85;21077;-60
2021/09/10 05:30:09;;;;;;;16.73;14.98;;;;;;;26.65;36.55;100782.39;1644176;85;21067;-60
2021/09/10 05:32:35;;;;;;;16.17;14.47;;;;;;;26.77;35.74;100776.02;1656905;85;21042;-61
2021/09/10 05:35:01;;;;;;;18.90;14.55;;;;;;;26.85;35.61;100780.05;1652842;84;21206;-60
2021/09/10 05:37:29;;;;;;;22.52;15.15;;;;;;;26.93;36.00;100771.77;1663784;84;21057;-60
2021/09/10 05:39:56;;;;;;;16.67;14.85;;;;;;;27.03;35.27;100773.59;1662368;84;21062;-61
2021/09/10 05:42:22;;;;;;;19.12;15.53;;;;;;;27.08;35.60;100775.73;1657884;84;21097;-61
2021/09/10 05:44:48;;;;;;;19.20;15.72;;;;;;;27.05;35.52;100776.33;1660119;84;21022;-62
2021/09/10 05:47:14;;;;;;;17.20;14.43;;;;;;;27.07;35.99;100782.32;1623868;86;21119;-61
2021/09/10 05:49:41;;;;;;;21.62;14.98;;;;;;;27.14;35.54;100784.70;1612533;88;21107;-61
2021/09/10 05:52:10;;;;;;;18.20;15.68;;;;;;;27.22;35.20;100788.20;1609967;87;21073;-62
2021/09/10 05:54:36;;;;;;;15.93;14.35;;;;;;;27.33;35.25;100783.44;1632282;86;21508;-60
2021/09/10 05:57:06;;;;;;;18.27;15.32;;;;;;;27.48;34.72;100783.83;1651184;85;21039;-63
2021/09/10 05:59:32;;;;;;;19.45;14.47;;;;;;;27.35;35.07;100781.23;1652720;86;21542;-62
2021/09/10 06:01:58;;;;;;;17.73;15.28;;;;;;;27.04;35.81;100782.08;1669211;83;21646;-61
2021/09/10 06:04:25;;;;;;;16.25;14.70;;;;;;;26.85;36.20;100781.42;1681759;83;21092;-62
2021/09/10 06:06:53;;;;;;;22.48;16.75;;;;;;;26.73;37.27;100785.06;1692903;83;21610;-62
2021/09/10 06:09:19;;;;;;;20.72;16.70;;;;;;;26.83;37.21;100780.89;1702793;83;21057;-62
2021/09/10 06:11:45;;;;;;;19.02;16.25;;;;;;;27.04;36.90;100782.08;1702161;83;21860;-62
2021/09/10 06:14:11;;;;;;;16.80;14.75;;;;;;;27.14;36.80;100783.33;1695447;83;21440;-62
2021/09/10 06:16:38;;;;;;;17.52;14.40;;;;;;;27.12;36.52;100782.81;1696646;83;21559;-61
2021/09/10 06:19:05;;;;;;;21.60;15.25;;;;;;;26.81;36.82;100789.94;1694449;83;21041;-62
2021/09/10 06:21:30;;;;;;;15.43;13.88;;;;;;;26.69;36.25;100790.84;1702035;83;21002;-63
2021/09/10 06:23:57;;;;;;;15.95;14.28;;;;;;;26.64;36.77;100790.91;1697543;83;21588;-63
2021/09/10 06:26:25;;;;;;;14.70;13.25;;;;;;;26.65;37.48;100784.31;1694766;83;21078;-61
2021/09/10 06:28:51;;;;;;;14.95;12.90;;;;;;;26.70;36.30;100796.59;1696364;83;21070;-60
2021/09/10 06:31:17;;;;;;;14.30;12.13;;;;;;;26.62;36.45;100793.91;1694936;83;20962;-61
2021/09/10 06:33:44;;;;;;;16.05;13.10;;;;;;;26.61;37.27;100792.27;1693296;84;21090;-61
2021/09/10 06:36:10;;;;;;;15.40;13.80;;;;;;;26.26;36.93;100750.41;1691741;83;21125;-61
2021/09/10 06:38:36;;;;;;;14.63;13.13;;;;;;;26.17;37.40;100797.99;1695256;83;21022;-61
2021/09/10 06:41:02;;;;;;;15.10;13.53;;;;;;;26.09;37.32;100797.23;1695802;83;21022;-61
2021/09/10 06:43:28;;;;;;;13.08;11.88;;;;;;;26.04;37.72;100797.25;1678011;83;21054;-62
2021/09/10 06:45:56;;;;;;;15.68;12.55;;;;;;;25.76;38.08;100802.23;1696574;82;21652;-62
2021/09/10 06:48:22;;;;;;;14.18;12.85;;;;;;;25.40;38.80;100806.45;1694975;83;21079;-63
2021/09/10 06:50:49;;;;;;;14.70;13.20;;;;;;;25.19;38.97;100807.55;1688371;83;21058;-62
2021/09/10 06:53:15;;;;;;;15.72;13.28;;;;;;;24.86;39.74;100801.56;1694887;83;21029;-62
2021/09/10 06:55:41;;;;;;;13.95;12.55;;;;;;;24.49;40.77;100807.50;1693692;83;21064;-61
2021/09/10 06:58:07;;;;;;;18.65;13.83;;;;;;;24.02;41.39;100809.02;1691178;84;21082;-62
2021/09/10 07:00:34;;;;;;;16.95;12.53;;;;;;;23.64;41.99;100810.45;1682860;83;21054;-62
2021/09/10 07:03:00;;;;;;;14.50;12.18;;;;;;;23.40;42.95;100815.48;1692718;84;21129;-62
2021/09/10 07:05:27;;;;;;;12.93;9.25;;;;;;;23.22;42.60;100813.17;1677452;83;21072;-61
2021/09/10 07:07:55;;;;;;;12.20;10.82;;;;;;;23.01;43.07;100816.25;1703261;83;21089;-62
2021/09/10 07:10:23;;;;;;;17.40;13.13;;;;;;;22.83;43.54;100818.29;1688331;83;21628;-62
2021/09/10 07:12:52;;;;;;;15.60;11.18;;;;;;;22.60;44.28;100812.63;1693985;81;21532;-61
2021/09/10 07:15:18;;;;;;;15.88;12.35;;;;;;;22.36;44.92;100814.84;1696071;83;21093;-62
2021/09/10 07:17:45;;;;;;;14.18;11.60;;;;;;;22.32;45.08;100809.10;1695994;83;21125;-62
2021/09/10 07:20:13;;;;;;;13.20;11.80;;;;;;;22.37;45.28;100813.75;1694219;83;21091;-60
2021/09/10 07:22:39;;;;;;;12.23;10.98;;;;;;;22.39;45.32;100813.50;1693239;82;21078;-62
2021/09/10 07:25:08;;;;;;;13.62;11.35;;;;;;;22.33;45.45;100818.06;1696668;83;21074;-60
2021/09/10 07:27:34;;;;;;;12.95;11.43;;;;;;;22.28;45.00;100816.64;1689442;83;21078;-60
2021/09/10 07:30:02;;;;;;;11.28;9.95;;;;;;;22.30;45.08;100819.92;1692188;83;21066;-60
2021/09/10 07:32:28;;;;;;;10.85;9.83;;;;;;;22.35;45.12;100818.08;1675279;85;21497;-60
2021/09/10 07:34:54;;;;;;;11.55;10.50;;;;;;;22.37;44.74;100821.09;1677974;83;21145;-60
2021/09/10 07:37:27;;;;;;;20.15;9.30;;;;;;;22.34;44.74;100820.53;1669030;84;21040;-61
2021/09/10 07:39:48;;;;;;;11.18;9.15;;;;;;;22.31;45.20;100816.95;1672171;84;21159;-63
2021/09/10 07:42:15;;;;;;;10.05;9.05;;;;;;;22.27;45.52;100815.83;1676099;84;21077;-62
2021/09/10 07:44:41;;;;;;;10.15;8.68;;;;;;;22.32;45.21;100827.27;1667688;84;21127;-64
2021/09/10 07:47:06;;;;;;;;;;;;;;;22.36;44.72;100818.92;1669095;84;21065;-61
2021/09/10 07:49:33;;;;;;;9.60;8.45;;;;;;;22.46;44.67;100824.99;1673848;84;20141;-62
2021/09/10 07:52:00;;;;;;;8.10;7.12;;;;;;;22.47;43.74;100821.19;1682275;84;21120;-61
2021/09/10 07:54:26;;;;;;;9.43;7.15;;;;;;;22.49;43.79;100816.31;1674631;84;21093;-61
2021/09/10 07:56:53;;;;;;;9.28;8.25;;;;;;;22.54;43.79;100815.02;1641344;86;21075;-62
2021/09/10 07:59:19;;;;;;;8.80;7.40;;;;;;;22.63;43.85;100820.27;1635742;86;21096;-64
2021/09/10 08:01:45;;;;;;;10.55;6.62;;;;;;;22.70;43.31;100812.73;1651365;85;21899;-61
2021/09/10 08:04:12;;;;;;;7.78;6.58;;;;;;;22.78;43.04;100806.55;1647500;85;21550;-64
2021/09/10 08:06:38;;;;;;;11.18;6.95;;;;;;;22.61;42.43;100767.28;1650461;85;20995;-64
2021/09/10 08:09:05;;;;;;;5.47;4.97;;;;;;;22.91;42.30;100806.13;1650801;85;21124;-61
2021/09/10 08:11:33;;;;;;;7.10;5.15;;;;;;;22.94;41.42;100805.58;1658991;85;21129;-62
2021/09/10 08:14:02;;;;;;;8.60;5.85;;;;;;;22.93;41.29;100804.77;1655202;85;21052;-62
2021/09/10 08:16:29;;;;;;;7.45;5.25;;;;;;;22.93;40.79;100804.77;1645142;85;21075;-61
2021/09/10 08:18:55;;;;;;;5.58;4.80;;;;;;;22.97;41.22;100805.08;1644226;85;21148;-60
2021/09/10 08:21:21;;;;;;;6.50;4.30;;;;;;;23.03;41.11;100802.70;1657420;85;21096;-60
2021/09/10 08:23:47;;;;;;;8.05;4.95;;;;;;;23.07;40.88;100798.38;1647102;84;21541;-62
2021/09/10 08:26:16;;;;;;;7.75;4.55;;;;;;;23.12;40.12;100793.53;1650081;85;21323;-62
2021/09/10 08:28:42;;;;;;;6.42;4.97;;;;;;;23.12;40.09;100799.78;1650888;85;21057;-62
2021/09/10 08:31:11;;;;;;;10.95;4.83;;;;;;;23.16;40.39;100795.19;1636139;85;21061;-62
2021/09/10 08:33:38;;;;;;;6.12;4.78;;;;;;;23.17;40.68;100792.73;1630077;86;21105;-61
2021/09/10 08:36:05;;;;;;;6.83;5.15;;;;;;;23.20;41.05;100796.30;1654532;85;21085;-63
2021/09/10 08:38:32;;;;;;;13.10;5.08;;;;;;;23.26;40.76;100791.17;1660642;85;21026;-68
2021/09/10 08:41:03;;;;;;;5.50;4.90;;;;;;;23.29;40.60;100793.37;1645979;85;21092;-64
2021/09/10 08:43:29;;;;;;;6.10;3.80;;;;;;;23.31;40.24;100792.56;1656698;85;21601;-63
2021/09/10 08:45:58;;;;;;;8.68;4.05;;;;;;;23.36;39.34;100788.53;1661535;85;21065;-62
2021/09/10 08:48:27;;;;;;;4.95;4.47;;;;;;;23.43;39.27;100788.28;1657988;85;21105;-61
2021/09/10 08:50:56;;;;;;;4.95;4.45;;;;;;;23.43;38.84;100778.76;1655679;85;21089;-60
2021/09/10 08:53:23;;;;;;;4.30;3.90;;;;;;;23.41;39.10;100779.02;1663278;85;21026;-61
2021/09/10 08:55:49;;;;;;;6.17;4.10;;;;;;;23.37;38.82;100772.47;1658363;85;21089;-59
2021/09/10 08:58:15;;;;;;;4.55;4.00;;;;;;;23.39;38.29;100773.58;1666972;85;21079;-62
2021/09/10 09:00:41;;;;;;;7.67;5.62;;;;;;;23.42;38.76;100769.79;1662370;85;21315;-63
2021/09/10 09:03:11;;;;;;;6.47;4.62;;;;;;;23.49;38.54;100771.73;1647856;85;21117;-64
2021/09/10 09:05:38;;;;;;;6.28;3.77;;;;;;;23.49;38.28;100764.94;1654899;85;21014;-60
2021/09/10 09:08:18;;;;;;;4.15;3.75;;;;;;;23.49;38.76;100761.41;1653862;85;21122;-60
2021/09/10 09:11:06;;;;;;;10.35;4.47;;;;;;;23.48;37.47;100759.20;1667477;85;20999;-60
2021/09/10 09:13:37;;;;;;;9.65;4.67;;;;;;;23.47;37.95;100750.78;1659931;85;21061;-61
2021/09/10 09:16:27;;;;;;;5.62;5.12;;;;;;;23.51;38.65;100752.44;1672147;85;21053;-63
2021/09/10 09:18:58;;;;;;;4.85;4.40;;;;;;;23.59;38.04;100748.39;1650111;85;21070;-61
2021/09/10 09:21:34;;;;;;;8.20;5.45;;;;;;;23.61;37.53;100753.83;1657485;85;21090;-61
2021/09/10 09:24:18;;;;;;;;;;;;;;;23.62;37.49;100748.67;1663061;84;80533;-75
2021/09/10 09:26:49;;;;;;;6.60;5.03;;;;;;;23.66;37.64;100746.25;1695331;84;20165;-74
2021/09/10 09:29:19;;;;;;;10.25;4.85;;;;;;;23.65;37.68;100745.95;1692929;84;21105;-74
2021/09/10 09:32:07;;;;;;;7.95;5.10;;;;;;;23.74;37.78;100747.64;1687680;83;21130;-73
2021/09/10 09:34:46;;;;;;;;;;;;;;;23.80;37.57;100746.59;1698499;84;21033;-75
2021/09/10 09:37:22;;;;;;;5.92;4.62;;;;;;;23.82;37.56;100743.06;1690631;83;20191;-72
2021/09/10 09:39:56;;;;;;;16.90;6.45;;;;;;;23.87;37.71;100745.80;1694556;83;21093;-74
2021/09/10 09:42:33;;;;;;;13.62;5.37;;;;;;;23.93;37.80;100734.39;1693547;83;21141;-75
2021/09/10 09:45:20;;;;;;;10.80;6.25;;;;;;;23.93;38.17;100732.48;1696098;84;21067;-72
2021/09/10 09:47:45;;;;;;;8.50;6.05;;;;;;;23.98;38.04;100734.38;1693561;84;21022;-74
2021/09/10 09:50:17;;;;;;;9.03;5.78;;;;;;;24.01;37.97;100736.58;1678984;85;21087;-75
2021/09/10 09:52:48;;;;;;;11.63;5.92;;;;;;;24.03;37.90;100729.77;1635341;86;21048;-75
2021/09/10 09:55:14;;;;;;;10.13;5.97;;;;;;;24.15;37.83;100734.98;1632401;86;21153;-74
2021/09/10 09:57:44;;;;;;;7.35;6.50;;;;;;;24.25;37.28;100730.91;1646175;86;21032;-74
2021/09/10 10:00:11;;;;;;;9.68;5.87;;;;;;;24.35;36.72;100729.29;1645694;86;21114;-74
2021/09/10 10:02:38;;;;;;;10.08;6.40;;;;;;;24.40;36.63;100730.66;1646273;86;21154;-73
2021/09/10 10:05:07;;;;;;;13.45;6.33;;;;;;;24.45;36.56;100731.48;1610165;87;21045;-74
2021/09/10 10:08:01;;;;;;;7.87;6.10;;;;;;;24.49;36.52;100724.95;1647021;86;21536;-76
2021/09/10 10:10:52;;;;;;;13.85;6.62;;;;;;;24.23;36.53;100675.08;1645811;86;22232;-73
2021/09/10 10:13:29;;;;;;;7.15;6.37;;;;;;;24.58;35.86;100724.72;1607527;86;21336;-76
2021/09/10 10:15:57;;;;;;;10.28;6.03;;;;;;;24.57;35.89;100725.79;1614510;87;21068;-73
2021/09/10 10:18:41;;;;;;;12.43;5.67;;;;;;;24.53;36.01;100725.26;1615742;87;21203;-75
2021/09/10 10:21:10;;;;;;;7.30;5.40;;;;;;;24.54;35.76;100717.34;1612340;87;21100;-74
2021/09/10 10:23:49;;;;;;;6.08;5.42;;;;;;;24.59;35.92;100713.26;1615277;89;21094;-75
2021/09/10 10:26:35;;;;;;;7.08;5.53;;;;;;;24.60;35.48;100718.97;1607811;87;21177;-75
2021/09/10 10:29:09;;;;;;;10.40;5.70;;;;;;;24.61;35.60;100714.61;1609031;87;21182;-75
2021/09/10 10:32:00;;;;;;;6.42;5.60;;;;;;;24.63;35.63;100709.70;1611564;87;21074;-73
2021/09/10 10:34:29;;;;;;;9.33;5.67;;;;;;;24.62;35.28;100710.81;1604672;88;21697;-75
2021/09/10 10:36:57;;;;;;;7.97;5.22;;;;;;;24.62;35.63;100705.88;1616774;88;21101;-76
2021/09/10 10:39:29;;;;;;;13.48;5.97;;;;;;;24.65;35.59;100705.34;1615971;87;21579;-74
2021/09/10 10:42:01;;;;;;;6.35;4.92;;;;;;;24.68;35.58;100698.80;1608684;87;21070;-72
2021/09/10 10:44:36;;;;;;;9.15;6.50;;;;;;;24.73;35.55;100696.61;1593031;89;21101;-74
2021/09/10 10:47:14;;;;;;;7.25;5.03;;;;;;;24.76;34.59;100694.70;1614994;87;21153;-73
2021/09/10 10:49:48;;;;;;;8.00;5.20;;;;;;;24.68;34.72;100696.63;1619693;87;21131;-72
2021/09/10 10:52:30;;;;;;;5.37;4.80;;;;;;;24.60;35.23;100698.00;1619914;87;21119;-73
2021/09/10 10:55:24;;;;;;;10.70;5.45;;;;;;;24.60;35.30;100692.55;1614613;87;21540;-73
2021/09/10 10:57:54;;;;;;;11.78;5.90;;;;;;;24.64;35.40;100689.55;1631606;87;21108;-74
2021/09/10 11:00:32;;;;;;;12.95;5.12;;;;;;;24.64;34.80;100688.19;1620193;87;21046;-72
2021/09/10 11:03:19;;;;;;;9.03;4.90;;;;;;;24.61;34.51;100687.36;1620010;87;21194;-74
2021/09/10 11:05:47;;;;;;;;;;;;;;;24.61;33.81;100686.55;1618558;87;21082;-73
2021/09/10 11:08:40;;;;;;;5.42;4.67;;;;;;;24.56;34.09;100690.08;1621432;87;20482;-74
2021/09/10 11:11:06;;;;;;;11.28;5.20;;;;;;;24.52;33.84;100684.91;1619785;87;21086;-73
2021/09/10 11:13:32;;;;;;;11.15;5.55;;;;;;;24.50;32.97;100682.97;1619237;87;21065;-73
2021/09/10 11:16:03;;;;;;;10.85;6.17;;;;;;;24.36;33.63;100673.73;1619137;87;21444;-75
2021/09/10 11:18:29;;;;;;;8.78;4.75;;;;;;;24.32;34.09;100672.09;1618324;87;21141;-74
2021/09/10 11:21:04;;;;;;;6.28;4.17;;;;;;;24.35;34.17;100673.45;1615421;87;21085;-74
2021/09/10 11:23:37;;;;;;;7.80;4.65;;;;;;;24.36;33.86;100669.64;1617834;87;21162;-74